Time;durP1;ratioP1;P1;durP2;ratioP2;P2;SDS_P1;SDS_P2;PMS_P1;PMS_P2;Temp;Humidity;BMP_temperature;BMP_pressure;BME280_temperature;BME280_humidity;BME280_pressure;Samples;Min_cycle;Max_cycle;Signal;HPM_P1;HPM_P2
2022/12/02 00:02:17;;;;;;;29.88;17.52;;;;;;;0.79;95.44;99348.16;4908493;29;20598;-86
2022/12/02 00:05:14;;;;;;;28.67;16.85;;;;;;;0.80;95.62;99344.72;4875838;29;20481;-87
2022/12/02 00:08:21;;;;;;;27.70;15.52;;;;;;;0.76;95.13;99340.47;4893434;29;20052;-85
2022/12/02 00:11:27;;;;;;;36.45;20.23;;;;;;;0.68;95.08;99338.91;4904228;29;20047;-85
2022/12/02 00:14:33;;;;;;;34.65;18.00;;;;;;;0.65;95.65;99338.97;4904022;29;20413;-84
2022/12/02 00:17:18;;;;;;;30.98;16.58;;;;;;;0.76;96.35;99338.75;4896177;29;20481;-84
2022/12/02 00:20:03;;;;;;;46.13;22.58;;;;;;;0.78;94.99;99339.59;4918068;29;20143;-85
2022/12/02 00:22:47;;;;;;;36.13;19.73;;;;;;;0.73;95.98;99333.66;4913201;29;20164;-84
2022/12/02 00:25:33;;;;;;;33.92;17.77;;;;;;;0.76;95.80;99328.44;4899996;29;20051;-85
2022/12/02 00:28:19;;;;;;;29.83;16.27;;;;;;;0.79;95.24;99330.09;4902795;29;20059;-85
2022/12/02 00:31:03;;;;;;;31.83;18.13;;;;;;;0.75;95.30;99326.75;4894301;29;20042;-86
2022/12/02 00:33:48;;;;;;;31.75;17.58;;;;;;;0.77;95.42;99330.13;4902299;29;20148;-84
2022/12/02 00:36:34;;;;;;;30.02;17.70;;;;;;;0.76;95.10;99325.84;4880861;29;20041;-86
2022/12/02 00:39:19;;;;;;;34.05;19.23;;;;;;;0.83;94.68;99332.56;4890760;29;20044;-83
2022/12/02 00:42:04;;;;;;;31.85;17.88;;;;;;;0.92;95.37;99333.28;4908752;29;20499;-85
2022/12/02 00:47:56;;;;;;;32.78;16.98;;;;;;;0.85;95.39;99325.66;4882588;29;20119;-86
2022/12/02 00:50:41;;;;;;;30.33;16.77;;;;;;;0.81;94.90;99321.47;4903379;29;20476;-85
2022/12/02 00:53:26;;;;;;;28.55;16.70;;;;;;;0.71;95.39;99330.25;4885967;29;20044;-84
2022/12/02 00:56:11;;;;;;;29.77;15.95;;;;;;;0.60;95.33;99325.28;4896702;29;20060;-85
2022/12/02 00:58:55;;;;;;;32.33;17.77;;;;;;;0.75;94.84;99319.00;4900205;29;20047;-84
2022/12/02 01:01:43;;;;;;;31.48;17.83;;;;;;;0.64;95.49;99326.94;4895435;29;20187;-85
2022/12/02 01:04:28;;;;;;;26.13;15.85;;;;;;;0.70;94.63;99329.38;4898445;29;20045;-84
2022/12/02 01:07:13;;;;;;;26.58;15.80;;;;;;;0.70;94.63;99323.41;4907425;29;20480;-85
2022/12/02 01:10:05;;;;;;;29.63;16.25;;;;;;;0.73;94.55;99323.34;4911523;29;20068;-85
2022/12/02 01:12:50;;;;;;;29.45;15.40;;;;;;;0.78;94.47;99329.25;4908250;29;20048;-85
2022/12/02 01:15:34;;;;;;;26.92;15.25;;;;;;;0.83;94.78;99317.09;4898783;29;20132;-84
2022/12/02 01:18:19;;;;;;;29.45;16.27;;;;;;;0.95;93.95;99320.31;4898682;29;20051;-84
2022/12/02 01:21:05;;;;;;;30.90;17.13;;;;;;;0.84;93.46;99316.25;4900240;29;20591;-85
2022/12/02 01:23:50;;;;;;;29.98;16.30;;;;;;;0.83;94.16;99311.94;4909527;29;20461;-86
2022/12/02 01:26:34;;;;;;;29.05;16.35;;;;;;;0.85;93.71;99315.34;4912428;29;20068;-86
2022/12/02 01:29:19;;;;;;;28.15;16.23;;;;;;;0.87;94.54;99317.91;4895176;29;20044;-86
2022/12/02 01:32:05;;;;;;;31.05;16.30;;;;;;;0.90;93.32;99317.84;4912395;29;20032;-86
2022/12/02 01:34:50;;;;;;;28.45;15.65;;;;;;;0.91;92.81;99310.94;4914593;29;20052;-85
2022/12/02 01:37:35;;;;;;;30.13;16.48;;;;;;;0.88;92.89;99311.00;4899745;29;20040;-84
2022/12/02 01:40:20;;;;;;;30.17;16.80;;;;;;;0.77;92.77;99312.06;4892135;29;20059;-85
2022/12/02 01:43:05;;;;;;;29.98;16.67;;;;;;;0.69;93.37;99319.09;4895098;29;20147;-85
2022/12/02 01:45:51;;;;;;;30.65;16.30;;;;;;;0.56;93.50;99313.31;4912489;29;20050;-85
2022/12/02 01:48:36;;;;;;;29.55;16.42;;;;;;;0.63;94.43;99319.22;4896603;29;20985;-85
2022/12/02 01:51:22;;;;;;;31.23;16.40;;;;;;;0.60;94.82;99325.28;4894730;29;20051;-85
2022/12/02 01:54:08;;;;;;;26.13;15.52;;;;;;;0.44;95.06;99317.00;4893321;29;20052;-84
2022/12/02 01:56:54;;;;;;;28.77;16.25;;;;;;;0.34;96.10;99322.28;4897632;29;20036;-84
2022/12/02 01:59:40;;;;;;;33.67;19.15;;;;;;;0.25;95.81;99312.16;4900513;29;20072;-85
2022/12/02 02:02:31;;;;;;;35.55;19.67;;;;;;;0.12;96.10;99316.66;4895810;29;20036;-85
2022/12/02 02:05:23;;;;;;;33.38;17.77;;;;;;;-0.01;97.09;99305.72;4909309;29;20087;-83
2022/12/02 02:08:11;;;;;;;29.08;16.30;;;;;;;0.01;96.71;99322.00;4904548;29;20044;-83
2022/12/02 02:10:56;;;;;;;28.42;14.38;;;;;;;0.07;97.17;99318.47;4897236;29;20143;-84
2022/12/02 02:13:42;;;;;;;30.88;16.67;;;;;;;0.19;96.44;99323.44;4895206;29;20506;-85
2022/12/02 02:16:27;;;;;;;31.17;15.90;;;;;;;0.19;96.77;99320.84;4900274;29;20520;-85
2022/12/02 02:19:14;;;;;;;30.48;17.00;;;;;;;0.13;96.21;99317.53;4901592;29;20037;-85
2022/12/02 02:22:03;;;;;;;27.85;15.45;;;;;;;0.13;96.45;99317.53;4896504;29;20519;-83
2022/12/02 02:24:48;;;;;;;28.15;14.50;;;;;;;0.02;97.34;99325.44;4894102;29;20041;-86
2022/12/02 02:27:32;;;;;;;30.00;16.05;;;;;;;0.05;97.05;99322.81;4894308;29;20436;-85
2022/12/02 02:30:18;;;;;;;28.38;15.75;;;;;;;0.08;95.86;99317.59;4881949;29;20127;-84
2022/12/02 02:33:06;;;;;;;30.10;15.63;;;;;;;0.05;95.89;99318.47;4898189;29;20046;-84
2022/12/02 02:35:51;;;;;;;28.17;16.80;;;;;;;0.02;96.06;99321.13;4898198;29;20041;-86
2022/12/02 02:38:37;;;;;;;30.02;15.32;;;;;;;0.09;95.69;99319.28;4899013;29;20048;-84
2022/12/02 02:41:24;;;;;;;27.52;15.65;;;;;;;0.18;95.97;99315.72;4903399;29;20059;-85
2022/12/02 02:44:08;;;;;;;26.40;15.68;;;;;;;0.18;95.81;99316.56;4895094;29;20060;-85
2022/12/02 02:46:54;;;;;;;34.72;18.90;;;;;;;0.26;95.81;99316.44;4912620;29;20070;-84
2022/12/02 02:49:40;;;;;;;29.80;16.85;;;;;;;0.26;95.94;99323.31;4889435;29;20045;-84
2022/12/02 02:52:24;;;;;;;29.98;15.68;;;;;;;0.18;95.61;99320.88;4900316;29;20045;-84
2022/12/02 02:55:17;;;;;;;28.67;15.75;;;;;;;0.09;96.98;99319.28;4887880;29;20492;-85
2022/12/02 02:58:15;;;;;;;35.00;18.10;;;;;;;0.14;96.80;99311.47;4906089;29;20036;-85
2022/12/02 03:01:10;;;;;;;30.95;17.00;;;;;;;0.21;96.00;99315.66;4899892;29;20076;-85
2022/12/02 03:03:59;;;;;;;32.05;16.42;;;;;;;0.27;95.78;99320.72;4895420;29;20739;-86
2022/12/02 03:06:44;;;;;;;26.95;14.88;;;;;;;0.36;95.21;99311.94;4901505;29;20135;-84
2022/12/02 03:09:30;;;;;;;29.17;16.73;;;;;;;0.49;94.46;99310.84;4897923;29;20478;-84
2022/12/02 03:12:15;;;;;;;27.13;15.38;;;;;;;0.53;94.06;99316.81;4910592;29;20496;-84
2022/12/02 03:15:02;;;;;;;29.63;16.20;;;;;;;0.46;93.74;99310.06;4912293;29;20059;-86
2022/12/02 03:17:49;;;;;;;30.10;16.17;;;;;;;0.46;94.35;99310.91;4913507;29;20059;-85
2022/12/02 03:20:33;;;;;;;26.77;15.65;;;;;;;0.56;93.44;99310.75;4893513;29;20059;-85
2022/12/02 03:23:18;;;;;;;28.95;15.35;;;;;;;0.46;93.85;99299.75;4901129;29;20043;-85
2022/12/02 03:26:04;;;;;;;27.92;15.63;;;;;;;0.59;93.41;99295.22;4899368;29;20127;-86
2022/12/02 03:28:49;;;;;;;31.23;16.92;;;;;;;0.50;93.91;99291.09;4911384;29;20036;-85
2022/12/02 03:31:34;;;;;;;26.95;15.40;;;;;;;0.58;93.65;99296.09;4913799;29;20046;-83
2022/12/02 03:34:22;;;;;;;30.08;16.92;;;;;;;0.45;93.93;99293.75;4897302;29;20154;-85
2022/12/02 03:37:09;;;;;;;32.45;17.48;;;;;;;0.46;94.70;99290.28;4909426;29;20044;-85
2022/12/02 03:39:53;;;;;;;28.73;16.50;;;;;;;0.54;94.19;99295.28;4897119;29;20122;-84
2022/12/02 03:42:38;;;;;;;27.17;16.00;;;;;;;0.61;94.02;99294.31;4910828;29;20411;-86
2022/12/02 03:45:23;;;;;;;34.40;18.80;;;;;;;0.57;93.84;99291.81;4899984;29;20052;-83
2022/12/02 03:48:09;;;;;;;27.73;15.55;;;;;;;0.58;93.57;99294.38;4893246;29;20437;-85
2022/12/02 03:50:53;;;;;;;29.10;15.57;;;;;;;0.57;93.84;99290.06;4913391;29;20159;-83
2022/12/02 03:53:39;;;;;;;31.17;16.75;;;;;;;0.48;93.88;99288.53;4906275;29;20520;-84
2022/12/02 03:56:24;;;;;;;28.95;15.95;;;;;;;0.54;93.99;99284.16;4896517;29;20131;-85
2022/12/02 03:59:10;;;;;;;31.23;17.17;;;;;;;0.53;94.07;99285.00;4886901;29;20063;-83
2022/12/02 04:01:56;;;;;;;33.70;16.90;;;;;;;0.51;93.64;99279.88;4905528;29;20529;-85
2022/12/02 04:04:41;;;;;;;29.20;16.35;;;;;;;0.49;93.57;99282.50;4899380;29;20099;-85
2022/12/02 04:07:25;;;;;;;32.50;16.52;;;;;;;0.48;93.98;99279.94;4893413;29;20460;-83
2022/12/02 04:10:10;;;;;;;27.73;15.00;;;;;;;0.49;94.37;99290.22;4895632;29;20441;-83
2022/12/02 04:12:55;;;;;;;30.67;16.08;;;;;;;0.53;93.50;99285.00;4898409;29;20048;-84
2022/12/02 04:15:40;;;;;;;28.00;15.88;;;;;;;0.53;93.96;99290.16;4907987;29;20043;-85
2022/12/02 04:18:24;;;;;;;33.20;19.17;;;;;;;0.46;94.13;99290.28;4908983;29;20047;-86
2022/12/02 04:21:09;;;;;;;30.10;16.10;;;;;;;0.41;94.19;99288.69;4910458;29;20496;-89
2022/12/02 04:23:55;;;;;;;28.02;15.55;;;;;;;0.46;94.24;99286.84;4877886;29;20041;-83
2022/12/02 04:26:40;;;;;;;29.15;15.57;;;;;;;0.59;93.76;99283.16;4910286;29;20063;-84
2022/12/02 04:29:25;;;;;;;26.08;14.38;;;;;;;0.51;94.08;99281.63;4912016;29;20051;-86
2022/12/02 04:32:09;;;;;;;27.15;15.13;;;;;;;0.47;94.41;99293.72;4891993;29;20036;-86
2022/12/02 04:34:54;;;;;;;33.45;17.08;;;;;;;0.47;94.42;99286.00;4907775;29;20067;-87
2022/12/02 04:37:40;;;;;;;39.33;20.63;;;;;;;0.45;94.03;99282.59;4895432;29;20048;-85
2022/12/02 04:40:25;;;;;;;36.70;18.17;;;;;;;0.41;94.42;99280.94;4912515;29;20048;-84
2022/12/02 04:43:10;;;;;;;30.10;16.90;;;;;;;0.36;94.21;99281.00;4895723;29;20158;-83
2022/12/02 04:45:54;;;;;;;30.42;16.25;;;;;;;0.40;94.81;99279.22;4882803;29;20044;-84
2022/12/02 04:48:39;;;;;;;30.23;16.63;;;;;;;0.54;94.77;99271.25;4908785;29;20447;-85
2022/12/02 04:51:23;;;;;;;34.38;17.23;;;;;;;0.51;93.89;99279.88;4890705;29;20100;-86
2022/12/02 04:54:08;;;;;;;29.50;15.63;;;;;;;0.53;94.14;99280.72;4884931;29;20538;-86
2022/12/02 04:56:53;;;;;;;28.42;16.33;;;;;;;0.56;93.88;99274.63;4895628;29;20516;-87
2022/12/02 04:59:38;;;;;;;27.95;15.20;;;;;;;0.44;94.06;99280.91;4892788;29;20870;-84
2022/12/02 05:02:24;;;;;;;27.75;15.60;;;;;;;0.47;93.81;99279.09;4904348;29;20543;-86
2022/12/02 05:05:10;;;;;;;30.85;15.48;;;;;;;0.47;93.49;99278.25;4911517;29;20495;-82
2022/12/02 05:07:54;;;;;;;28.48;14.73;;;;;;;0.58;93.91;99278.91;4905511;29;20491;-83
2022/12/02 05:10:39;;;;;;;28.73;15.48;;;;;;;0.63;93.72;99277.94;4914446;29;20052;-83
2022/12/02 05:13:24;;;;;;;30.02;16.25;;;;;;;0.65;93.26;99287.38;4896634;29;20437;-83
2022/12/02 05:16:09;;;;;;;27.15;14.95;;;;;;;0.57;93.94;99289.25;4909473;29;20068;-82
2022/12/02 05:18:53;;;;;;;26.98;15.63;;;;;;;0.58;93.83;99288.34;4903420;29;20546;-82
2022/12/02 05:21:38;;;;;;;29.08;16.08;;;;;;;0.61;94.01;99281.41;4902733;29;20078;-81
2022/12/02 05:24:22;;;;;;;26.90;14.38;;;;;;;0.98;97.22;99274.66;4905642;29;20059;-82
2022/12/02 05:27:07;;;;;;;25.98;14.35;;;;;;;0.95;94.67;99279.88;4908698;29;20040;-80
2022/12/02 05:29:51;;;;;;;29.75;15.77;;;;;;;0.86;95.19;99286.06;4902430;29;20048;-80
2022/12/02 05:32:36;;;;;;;19.80;10.20;;;;;;;0.86;98.74;99280.91;4909428;29;20041;-83
2022/12/02 05:35:21;;;;;;;19.92;10.85;;;;;;;1.35;95.37;99285.09;4906076;29;20135;-83
2022/12/02 05:38:05;;;;;;;21.70;12.02;;;;;;;1.45;95.24;99281.41;4901942;29;20054;-79
2022/12/02 05:40:54;;;;;;;27.55;15.10;;;;;;;1.24;95.52;99280.13;4898770;29;20139;-79
2022/12/02 05:43:41;;;;;;;24.13;13.18;;;;;;;1.07;95.50;99286.53;4899023;29;20160;-80
2022/12/02 05:46:26;;;;;;;27.05;15.05;;;;;;;1.01;96.11;99291.84;4908213;29;20393;-81
2022/12/02 05:49:22;;;;;;;37.50;20.35;;;;;;;0.83;97.50;99291.28;4912972;29;20058;-84
2022/12/02 05:52:25;;;;;;;34.53;17.63;;;;;;;0.64;96.96;99295.97;4901232;29;20053;-81
2022/12/02 05:55:17;;;;;;;35.45;17.90;;;;;;;0.36;97.42;99296.47;4910820;29;20079;-83
2022/12/02 05:58:06;;;;;;;34.83;18.40;;;;;;;0.66;98.04;99290.78;4910313;29;20039;-82
2022/12/02 06:00:56;;;;;;;37.92;19.13;;;;;;;0.78;97.04;99302.59;4913045;29;20048;-82
2022/12/02 06:03:41;;;;;;;36.13;19.65;;;;;;;0.58;97.28;99304.69;4906839;29;20079;-82
2022/12/02 06:06:33;;;;;;;35.70;18.02;;;;;;;0.59;96.03;99302.94;4896071;29;20059;-83
2022/12/02 06:09:23;;;;;;;29.88;16.08;;;;;;;0.66;96.93;99306.25;4910345;29;20056;-82
2022/12/02 06:12:16;;;;;;;34.97;18.48;;;;;;;0.77;95.90;99309.47;4916512;29;20048;-83
2022/12/02 06:15:00;;;;;;;32.33;17.77;;;;;;;0.64;95.73;99308.03;4902105;29;20543;-82
2022/12/02 06:17:46;;;;;;;29.45;16.27;;;;;;;0.67;95.71;99308.81;4896192;29;20056;-83
2022/12/02 06:20:32;;;;;;;32.40;17.50;;;;;;;0.63;96.25;99304.59;4903324;29;20051;-83
2022/12/02 06:23:22;;;;;;;31.92;17.27;;;;;;;0.73;97.24;99319.00;4905458;29;20349;-82
2022/12/02 06:26:06;;;;;;;40.38;19.63;;;;;;;0.65;95.75;99312.31;4915604;29;20048;-81
2022/12/02 06:29:02;;;;;;;33.50;19.58;;;;;;;0.43;95.89;99308.41;4912376;29;20439;-81
2022/12/02 06:31:47;;;;;;;38.15;19.73;;;;;;;0.04;98.73;99308.19;4905182;29;20853;-81
2022/12/02 06:34:43;;;;;;;37.47;20.65;;;;;;;-0.01;99.61;99301.41;4910319;29;20048;-82
2022/12/02 06:37:29;;;;;;;34.50;19.27;;;;;;;-0.05;99.95;99310.06;4896500;29;20040;-81
2022/12/02 06:40:35;;;;;;;35.28;18.90;;;;;;;0.16;99.53;99305.44;4909511;29;20102;-82
2022/12/02 06:43:26;;;;;;;37.15;20.17;;;;;;;-0.27;100.00;99306.97;4916922;29;20578;-83
2022/12/02 06:46:19;;;;;;;38.67;19.88;;;;;;;-0.44;100.00;99305.50;4900016;29;20040;-82
2022/12/02 06:49:18;;;;;;;35.83;20.33;;;;;;;-0.31;100.00;99305.31;4892962;29;20048;-82
2022/12/02 06:52:19;;;;;;;35.70;20.35;;;;;;;-0.30;100.00;99313.03;4900758;29;20041;-82
2022/12/02 06:55:34;;;;;;;38.05;20.73;;;;;;;-0.07;100.00;99318.69;4899494;29;20076;-81
2022/12/02 06:58:28;;;;;;;;;;;;;;;-0.27;100.00;99314.69;4912212;29;20051;-82
2022/12/02 07:01:16;;;;;;;39.83;21.20;;;;;;;-0.25;100.00;99320.69;4900986;29;20397;-83
2022/12/02 07:04:03;;;;;;;35.42;20.33;;;;;;;-0.16;100.00;99322.25;4905581;29;20059;-82
2022/12/02 07:06:56;;;;;;;39.35;20.52;;;;;;;0.03;100.00;99329.69;4896315;29;20658;-81
2022/12/02 07:09:46;;;;;;;41.35;22.55;;;;;;;-0.04;100.00;99326.38;4907328;29;20067;-80
2022/12/02 07:12:44;;;;;;;38.95;21.23;;;;;;;0.04;100.00;99324.53;4913856;29;20100;-82
2022/12/02 07:15:32;;;;;;;47.03;24.05;;;;;;;0.12;100.00;99319.25;4909017;29;20066;-81
2022/12/02 07:18:20;;;;;;;40.65;22.52;;;;;;;0.11;100.00;99323.53;4926378;29;20106;-83
2022/12/02 07:21:12;;;;;;;39.92;22.17;;;;;;;0.22;100.00;99322.50;4912094;29;20462;-84
2022/12/02 07:23:57;;;;;;;45.17;23.50;;;;;;;0.26;100.00;99326.75;4902557;29;20441;-82
2022/12/02 07:26:45;;;;;;;38.70;21.90;;;;;;;0.25;100.00;99330.19;4910633;29;20043;-81
2022/12/02 07:29:34;;;;;;;43.00;25.00;;;;;;;0.33;100.00;99324.91;4913741;29;20123;-83
2022/12/02 07:32:18;;;;;;;42.42;21.42;;;;;;;0.40;100.00;99331.66;4896619;29;20111;-81
2022/12/02 07:35:03;;;;;;;40.13;21.35;;;;;;;0.53;100.00;99328.84;4879553;29;20165;-83
2022/12/02 07:37:48;;;;;;;37.00;20.83;;;;;;;0.47;100.00;99329.81;4900020;29;20160;-83
2022/12/02 07:40:33;;;;;;;34.90;19.63;;;;;;;0.68;100.00;99335.47;4906053;29;20131;-81
2022/12/02 07:43:17;;;;;;;40.97;21.38;;;;;;;0.61;99.98;99345.91;4906656;29;20048;-82
2022/12/02 07:46:02;;;;;;;37.13;19.67;;;;;;;0.65;100.00;99340.69;4917180;29;20524;-81
2022/12/02 07:48:47;;;;;;;38.10;20.80;;;;;;;0.81;98.97;99338.66;4902641;29;20048;-81
2022/12/02 07:51:31;;;;;;;42.88;22.67;;;;;;;1.02;98.39;99346.84;4909798;29;20056;-81
2022/12/02 07:54:16;;;;;;;43.08;22.80;;;;;;;1.04;97.44;99339.94;4893827;29;20104;-83
2022/12/02 07:57:01;;;;;;;42.50;24.50;;;;;;;0.84;97.42;99348.91;4910154;29;20143;-82
2022/12/02 07:59:45;;;;;;;39.10;21.42;;;;;;;0.70;98.54;99341.44;4907918;29;20049;-83
2022/12/02 08:02:30;;;;;;;37.60;20.40;;;;;;;0.75;98.83;99339.63;4914426;29;20091;-81
2022/12/02 08:05:15;;;;;;;42.95;22.90;;;;;;;0.38;99.99;99333.41;4878472;29;20233;-82
2022/12/02 08:07:59;;;;;;;38.05;20.75;;;;;;;0.67;99.24;99332.03;4908253;29;20052;-83
2022/12/02 08:10:44;;;;;;;36.85;20.10;;;;;;;0.61;99.88;99330.44;4903351;29;20190;-80
2022/12/02 08:13:29;;;;;;;37.08;19.88;;;;;;;0.79;99.16;99330.09;4906629;29;20048;-81
2022/12/02 08:16:14;;;;;;;39.22;21.13;;;;;;;0.81;98.47;99329.19;4900200;29;20043;-83
2022/12/02 08:19:00;;;;;;;35.42;20.83;;;;;;;0.76;98.19;99331.00;4906055;29;20128;-83
2022/12/02 08:21:44;;;;;;;38.95;21.20;;;;;;;0.71;98.75;99328.53;4897518;29;20480;-83
2022/12/02 08:24:29;;;;;;;32.75;18.02;;;;;;;0.68;98.75;99331.16;4889435;29;20056;-82
2022/12/02 08:27:14;;;;;;;36.85;20.65;;;;;;;0.76;98.10;99336.16;4907465;29;20040;-83
2022/12/02 08:29:58;;;;;;;36.33;20.60;;;;;;;0.75;98.13;99343.94;4906667;29;20404;-83
2022/12/02 08:32:42;;;;;;;37.70;19.60;;;;;;;0.73;98.71;99342.22;4907653;29;20050;-82
2022/12/02 08:35:27;;;;;;;37.97;21.23;;;;;;;0.63;98.76;99343.28;4892496;29;20063;-82
2022/12/02 08:38:12;;;;;;;37.95;20.27;;;;;;;0.83;98.53;99342.91;4903834;29;20393;-82
2022/12/02 08:40:56;;;;;;;39.38;20.70;;;;;;;0.70;98.52;99354.34;4910707;29;20153;-82
2022/12/02 08:43:41;;;;;;;36.67;20.42;;;;;;;0.67;99.26;99352.66;4904912;29;20060;-81
2022/12/02 08:46:26;;;;;;;37.47;20.55;;;;;;;0.60;99.84;99351.91;4914602;29;20150;-82
2022/12/02 08:49:12;;;;;;;40.25;22.25;;;;;;;0.67;100.00;99352.66;4904197;29;20048;-82
2022/12/02 08:51:57;;;;;;;41.63;22.90;;;;;;;0.48;100.00;99347.84;4909205;29;20044;-82
2022/12/02 08:54:44;;;;;;;41.92;22.63;;;;;;;0.60;100.00;99345.94;4910819;29;20044;-82
2022/12/02 08:57:28;;;;;;;40.58;22.50;;;;;;;0.72;100.00;99350.00;4893554;29;20072;-81
2022/12/02 09:00:15;;;;;;;39.58;19.67;;;;;;;0.81;100.00;99357.56;4911963;29;20103;-82
2022/12/02 09:02:59;;;;;;;40.45;22.50;;;;;;;0.64;100.00;99352.72;4900635;29;20048;-81
2022/12/02 09:05:44;;;;;;;49.05;24.20;;;;;;;0.81;99.99;99349.84;4906656;29;20048;-81
2022/12/02 09:08:28;;;;;;;43.00;22.50;;;;;;;0.82;100.00;99354.09;4905959;29;20147;-82
2022/12/02 09:11:14;;;;;;;37.70;21.73;;;;;;;0.94;100.00;99355.63;4906090;29;20124;-82
2022/12/02 09:13:58;;;;;;;44.40;23.60;;;;;;;0.94;99.52;99340.13;4911742;29;20044;-82
2022/12/02 09:16:43;;;;;;;44.42;23.85;;;;;;;0.94;100.00;99349.59;4884729;29;20044;-81
2022/12/02 09:19:28;;;;;;;40.10;22.80;;;;;;;0.77;100.00;99352.50;4905838;29;20116;-82
2022/12/02 09:22:13;;;;;;;44.60;23.08;;;;;;;0.72;100.00;99342.25;4910991;29;20044;-81
2022/12/02 09:24:58;;;;;;;37.95;22.42;;;;;;;0.71;100.00;99346.56;4903513;29;20504;-81
2022/12/02 09:27:42;;;;;;;42.67;23.40;;;;;;;0.78;100.00;99347.31;4912553;29;20035;-83
2022/12/02 09:30:27;;;;;;;46.25;24.48;;;;;;;0.61;100.00;99343.31;4910984;29;20086;-83
2022/12/02 09:33:12;;;;;;;42.85;22.23;;;;;;;0.55;100.00;99346.00;4910117;29;20496;-83
2022/12/02 09:35:58;;;;;;;41.72;22.17;;;;;;;0.73;100.00;99349.13;4916523;29;20051;-83
2022/12/02 09:38:43;;;;;;;37.65;20.70;;;;;;;0.64;100.00;99346.72;4900450;29;20542;-82
2022/12/02 09:41:28;;;;;;;36.10;19.92;;;;;;;0.67;100.00;99352.66;4916412;29;20047;-81
2022/12/02 09:44:12;;;;;;;41.15;21.00;;;;;;;0.68;100.00;99349.22;4915046;29;20048;-81
2022/12/02 09:46:57;;;;;;;40.83;22.83;;;;;;;0.73;100.00;99349.13;4909227;29;20047;-82
2022/12/02 09:49:45;;;;;;;37.42;21.67;;;;;;;0.85;100.00;99345.44;4917816;29;20471;-85
2022/12/02 09:52:30;;;;;;;44.28;22.50;;;;;;;0.54;100.00;99349.44;4896938;29;20063;-82
2022/12/02 09:55:17;;;;;;;42.17;22.35;;;;;;;0.34;100.00;99342.91;4904702;29;20119;-82
2022/12/02 09:58:28;;;;;;;43.63;22.80;;;;;;;0.31;100.00;99345.53;4897731;29;20047;-82
2022/12/02 10:01:13;;;;;;;41.25;22.80;;;;;;;0.28;100.00;99335.28;4906674;29;20052;-82
2022/12/02 10:03:58;;;;;;;45.25;22.52;;;;;;;0.29;100.00;99337.00;4915283;29;20059;-80
2022/12/02 10:06:43;;;;;;;41.05;24.10;;;;;;;0.30;100.00;99335.25;4897973;29;20051;-81
2022/12/02 10:09:29;;;;;;;48.70;25.50;;;;;;;0.31;100.00;99335.22;4902318;29;20487;-83
2022/12/02 10:12:14;;;;;;;48.08;25.30;;;;;;;0.46;100.00;99341.00;4903509;29;20035;-80
2022/12/02 10:14:59;;;;;;;44.63;24.38;;;;;;;0.37;100.00;99336.88;4907814;29;20188;-80
2022/12/02 10:17:44;;;;;;;45.42;24.95;;;;;;;0.39;100.00;99336.84;4907137;29;20172;-81
2022/12/02 10:20:29;;;;;;;42.20;23.65;;;;;;;0.27;100.00;99335.31;4907894;29;20052;-82
2022/12/02 10:23:25;;;;;;;42.67;24.02;;;;;;;0.25;100.00;99327.59;4909789;29;20091;-81
2022/12/02 10:26:13;;;;;;;47.38;25.77;;;;;;;0.17;100.00;99329.47;4911689;29;20061;-81
2022/12/02 10:29:04;;;;;;;51.00;27.10;;;;;;;0.26;100.00;99333.63;4896387;29;20049;-82
2022/12/02 10:32:04;;;;;;;58.75;30.50;;;;;;;0.26;100.00;99325.91;4882982;29;20088;-81
2022/12/02 10:35:06;;;;;;;63.45;32.40;;;;;;;0.20;100.00;99324.25;4906138;29;20085;-82
2022/12/02 10:37:52;;;;;;;63.03;31.00;;;;;;;0.18;100.00;99323.44;4898531;29;20062;-82
2022/12/02 10:40:37;;;;;;;62.15;31.38;;;;;;;0.26;100.00;99328.47;4909462;29;20041;-81
2022/12/02 10:43:21;;;;;;;58.53;31.75;;;;;;;0.43;100.00;99328.16;4916216;29;20044;-81
2022/12/02 10:46:06;;;;;;;66.10;33.85;;;;;;;0.27;100.00;99315.56;4915361;29;20050;-81
2022/12/02 10:48:51;;;;;;;63.10;32.78;;;;;;;0.39;100.00;99318.78;4884958;29;20039;-82
2022/12/02 10:51:36;;;;;;;68.57;35.35;;;;;;;0.39;100.00;99317.06;4900548;29;20044;-81
2022/12/02 10:54:28;;;;;;;60.63;31.00;;;;;;;0.31;100.00;99324.91;4913879;29;20060;-82
2022/12/02 10:57:21;;;;;;;66.85;32.38;;;;;;;0.35;100.00;99324.00;4906817;29;20048;-80
2022/12/02 11:00:16;;;;;;;70.38;33.30;;;;;;;0.37;100.00;99323.97;4908230;29;20556;-82
2022/12/02 11:03:04;;;;;;;65.95;31.75;;;;;;;0.33;100.00;99322.31;4897573;29;20259;-82
2022/12/02 11:05:49;;;;;;;63.90;32.20;;;;;;;0.33;100.00;99325.75;4912928;29;20554;-83
2022/12/02 11:08:34;;;;;;;55.85;29.98;;;;;;;0.37;100.00;99321.41;4910703;29;20510;-81
2022/12/02 11:11:24;;;;;;;48.90;27.35;;;;;;;0.40;100.00;99325.66;4912794;29;20883;-82
2022/12/02 11:14:13;;;;;;;43.38;23.98;;;;;;;0.39;100.00;99327.38;4902673;29;20076;-80
2022/12/02 11:17:12;;;;;;;44.17;25.27;;;;;;;0.52;100.00;99324.59;4892328;29;20047;-82
2022/12/02 11:20:28;;;;;;;42.33;23.20;;;;;;;0.60;100.00;99320.13;4906450;29;20035;-83
2022/12/02 11:23:20;;;;;;;46.95;24.95;;;;;;;0.28;100.00;99322.41;4906785;29;20048;-82
2022/12/02 11:26:10;;;;;;;41.95;23.23;;;;;;;0.36;100.00;99320.53;4895796;29;20041;-81
2022/12/02 11:29:14;;;;;;;37.08;22.63;;;;;;;0.44;100.00;99317.81;4906260;29;20421;-82
2022/12/02 11:32:16;;;;;;;37.63;21.35;;;;;;;0.31;100.00;99316.34;4906167;29;20047;-82
2022/12/02 11:35:01;;;;;;;41.20;22.55;;;;;;;0.33;100.00;99317.16;4909668;29;20412;-81
2022/12/02 11:37:47;;;;;;;37.60;20.70;;;;;;;0.28;100.00;99312.09;4899855;29;20044;-81
2022/12/02 11:40:33;;;;;;;40.13;21.77;;;;;;;0.26;100.00;99318.16;4911498;29;20158;-83
2022/12/02 11:43:45;;;;;;;42.00;24.38;;;;;;;0.20;100.00;99313.94;4910096;29;20055;-82
2022/12/02 11:46:43;;;;;;;42.08;24.48;;;;;;;0.29;100.00;99313.81;4886249;29;20055;-82
2022/12/02 11:49:41;;;;;;;35.42;20.30;;;;;;;0.22;100.00;99310.47;4907546;29;22079;-81
2022/12/02 11:52:26;;;;;;;42.30;22.13;;;;;;;0.13;100.00;99314.94;4898500;29;20548;-81
2022/12/02 11:55:22;;;;;;;34.55;20.23;;;;;;;0.19;100.00;99310.53;4893745;29;20507;-81
2022/12/02 11:58:18;;;;;;;35.10;19.48;;;;;;;0.19;100.00;99309.69;4912184;29;20484;-82
2022/12/02 12:01:11;;;;;;;32.40;18.85;;;;;;;0.31;100.00;99299.16;4900867;29;20064;-83
2022/12/02 12:03:56;;;;;;;34.10;20.35;;;;;;;0.44;100.00;99306.69;4887560;29;20048;-82
2022/12/02 12:06:54;;;;;;;34.78;20.10;;;;;;;0.44;100.00;99309.25;4899989;29;20048;-84
2022/12/02 12:09:38;;;;;;;36.15;21.30;;;;;;;0.20;100.00;99311.38;4909997;29;20085;-83
2022/12/02 12:12:23;;;;;;;34.67;20.88;;;;;;;0.10;100.00;99297.78;4910509;29;20044;-81
2022/12/02 12:15:08;;;;;;;34.28;20.38;;;;;;;0.23;100.00;99301.88;4906730;29;20075;-80
2022/12/02 12:17:53;;;;;;;30.33;19.25;;;;;;;0.19;100.00;99299.38;4899712;29;20047;-81
2022/12/02 12:20:41;;;;;;;34.80;19.75;;;;;;;0.21;100.00;99297.63;4910888;29;20071;-82
2022/12/02 12:23:28;;;;;;;31.67;19.67;;;;;;;0.22;100.00;99300.19;4909641;29;20360;-81
2022/12/02 12:26:32;;;;;;;33.85;19.88;;;;;;;0.17;100.00;99293.38;4910407;29;20061;-84
2022/12/02 12:29:20;;;;;;;32.92;20.02;;;;;;;0.12;100.00;99290.88;4908598;29;20043;-80
2022/12/02 12:32:06;;;;;;;30.10;18.17;;;;;;;0.23;100.00;99288.13;4906793;29;20036;-82
2022/12/02 12:34:51;;;;;;;32.65;19.80;;;;;;;0.14;100.00;99294.28;4911773;29;20052;-82
2022/12/02 12:37:36;;;;;;;33.25;19.17;;;;;;;0.33;100.00;99291.38;4908080;29;20068;-82
2022/12/02 12:40:20;;;;;;;33.50;20.20;;;;;;;0.10;100.00;99285.75;4903147;29;20115;-83
2022/12/02 12:43:08;;;;;;;43.42;25.08;;;;;;;0.09;100.00;99293.53;4897284;29;20044;-81
2022/12/02 12:45:53;;;;;;;45.67;24.35;;;;;;;-0.03;100.00;99284.25;4906673;29;20052;-82
2022/12/02 12:48:39;;;;;;;45.38;26.63;;;;;;;0.01;100.00;99283.34;4906963;29;20048;-83
2022/12/02 12:51:24;;;;;;;48.08;26.10;;;;;;;0.26;100.00;99280.34;4900633;29;20048;-81
2022/12/02 12:54:09;;;;;;;42.40;25.20;;;;;;;0.21;100.00;99277.00;4912550;29;20059;-82
2022/12/02 12:56:54;;;;;;;54.15;29.35;;;;;;;0.06;100.00;99278.13;4882580;29;20046;-81
2022/12/02 12:59:38;;;;;;;57.60;31.52;;;;;;;0.11;100.00;99279.72;4886895;29;20048;-82